Main page
Satellite images 15-day forecastsClimateMarine weather Cyclones Lightning AirportsFAQ Newsletter About
Weather : Europe Africa North America South America Asia Australia-Oceania Others
Languages Contact

Liège, Belgium

Bierset

latitude: 50-39N, longitude: 005-27E, elevation: 186 m


METAR: EBLG 220220Z 15008KT CAVOK 07/05 Q1017 NOSIG
TAF: EBLG 212330Z 2200/2306 15007KT 7000 NSC PROB30 TEMPO 2203/2207 3200 BR PROB40 TEMPO 2223/2306 3400 BR PROB30 TEMPO 2303/2306 1200 BR MIFG

Time: 03:40 (02:40 UTC)

Current weather observation

The report was made 20 minutes ago, at 02:20 UTC
Wind 8 kt from the South/Southeast
Temperature 7°C
Humidity 87%
Pressure 1017 hPa
Visibility 10 km or more
no clouds below 1500 m and no cumulonimbus

Change units

Forecast

The report was made 3 hours and 10 minutes ago, at 23:30 UTC
Forecast valid from 22 at 00 UTC to 23 at 06 UTC
Wind 7 kt from the South/Southeast
Visibility: 7000 m
Probability 30% :
Temporary
from 22 at 03 UTC to 22 at 07 UTC
Visibility: 3200 m
mist
Probability 40% :
Temporary
from 22 at 23 UTC to 23 at 06 UTC
Visibility: 3400 m
mist
Probability 30% :
Temporary
from 23 at 03 UTC to 23 at 06 UTC
Visibility: 1200 m
mist and Shallow fog
The information on this site is subject to a disclaimer
Weather : Europe Africa North America South America Asia Australia-Oceania Others
Satellite images 15-day forecastsClimateMarine weather Cyclones Lightning AirportsFAQ Languages Contact Newsletter About